createdAt,value
2017-10-09T00:00:26.921Z,1018.8
2017-10-09T00:05:32.647Z,1018.8
2017-10-09T00:10:37.701Z,1018.7
2017-10-09T00:15:43.095Z,1018.7
2017-10-09T00:20:48.147Z,1018.8
2017-10-09T00:25:53.584Z,1018.7
2017-10-09T00:30:58.639Z,1018.8
2017-10-09T00:36:04.030Z,1018.7
2017-10-09T00:41:09.419Z,1018.7
2017-10-09T00:46:14.473Z,1018.7
2017-10-09T00:51:20.198Z,1018.7
2017-10-09T00:56:25.588Z,1018.7
2017-10-09T01:01:30.655Z,1018.7
2017-10-09T01:06:36.362Z,1018.7
2017-10-09T01:11:41.079Z,1018.6
2017-10-09T01:16:46.466Z,1018.6
2017-10-09T01:21:51.860Z,1018.7
2017-10-09T01:26:56.919Z,1018.6
2017-10-09T01:32:02.645Z,1018.5
2017-10-09T01:37:08.036Z,1018.6
2017-10-09T01:42:13.761Z,1018.6
2017-10-09T01:47:18.147Z,1018.6
2017-10-09T01:52:23.200Z,1018.5
2017-10-09T01:57:28.256Z,1018.5
2017-10-09T02:02:33.309Z,1018.5
2017-10-09T02:07:38.696Z,1018.5
2017-10-09T02:12:44.421Z,1018.5
2017-10-09T02:17:49.475Z,1018.5
2017-10-09T02:22:54.200Z,1018.5
2017-10-09T02:27:59.267Z,1018.5
2017-10-09T02:33:04.656Z,1018.4
2017-10-09T02:38:09.043Z,1018.4
2017-10-09T02:43:13.767Z,1018.4
2017-10-09T02:48:19.158Z,1018.4
2017-10-09T02:53:24.208Z,1018.4
2017-10-09T02:58:29.599Z,1018.3
2017-10-09T03:03:34.992Z,1018.3
2017-10-09T03:08:40.382Z,1018.3
2017-10-09T03:13:45.101Z,1018.3
2017-10-09T03:18:50.491Z,1018.2
2017-10-09T03:23:55.554Z,1018.2
2017-10-09T03:29:00.947Z,1018.2
2017-10-09T03:34:06.004Z,1018.2
2017-10-09T03:39:10.391Z,1018.2
2017-10-09T03:44:15.782Z,1018.2
2017-10-09T03:49:20.838Z,1018.3
2017-10-09T03:54:25.897Z,1018.2
2017-10-09T03:59:30.616Z,1018.2
2017-10-09T04:04:36.673Z,1018.2
2017-10-09T04:09:41.729Z,1018.3
2017-10-09T04:14:46.807Z,1018.2
2017-10-09T04:19:52.197Z,1018.2
2017-10-09T04:24:56.915Z,1018.2
2017-10-09T04:30:01.972Z,1018.2
2017-10-09T04:35:07.370Z,1018.2
2017-10-09T04:40:12.449Z,1018.2
2017-10-09T04:45:17.515Z,1018.1
2017-10-09T04:50:22.911Z,1018
2017-10-09T04:55:27.632Z,1018.1
2017-10-09T05:00:32.368Z,1018.1
2017-10-09T05:05:36.776Z,1018.1
2017-10-09T05:10:42.149Z,1018
2017-10-09T05:15:47.540Z,1018
2017-10-09T05:20:53.265Z,1018
2017-10-09T05:25:57.648Z,1018
2017-10-09T05:31:03.372Z,1018
2017-10-09T05:36:08.789Z,1018
2017-10-09T05:41:13.509Z,1018
2017-10-09T05:46:19.237Z,1018
2017-10-09T05:51:23.958Z,1018
2017-10-09T05:56:28.678Z,1018
2017-10-09T06:01:34.403Z,1018
2017-10-09T06:06:39.463Z,1018.1
2017-10-09T06:11:45.192Z,1018.1
2017-10-09T06:16:50.982Z,1018.1
2017-10-09T06:21:56.379Z,1018.1
2017-10-09T06:27:01.768Z,1018.1
2017-10-09T06:32:06.483Z,1018.1
2017-10-09T06:37:11.879Z,1018
2017-10-09T06:42:16.941Z,1018
2017-10-09T06:47:21.668Z,1018
2017-10-09T06:52:26.390Z,1018
2017-10-09T06:57:31.444Z,1017.9
2017-10-09T07:02:37.172Z,1017.9
2017-10-09T07:07:42.226Z,1017.9
2017-10-09T07:12:47.950Z,1018
2017-10-09T07:17:53.008Z,1018.1
2017-10-09T07:22:58.067Z,1018.1
2017-10-09T07:28:03.125Z,1018.1
2017-10-09T07:33:08.517Z,1018
2017-10-09T07:38:12.902Z,1018
2017-10-09T07:43:18.289Z,1018.1
2017-10-09T07:48:23.685Z,1018
2017-10-09T07:53:28.742Z,1018.1
2017-10-09T07:58:33.801Z,1018.1
2017-10-09T08:03:38.191Z,1018.1
2017-10-09T08:08:43.588Z,1018.1
2017-10-09T08:13:48.312Z,1018.1
2017-10-09T08:18:53.036Z,1018.2
2017-10-09T08:23:58.427Z,1018.2
2017-10-09T08:29:03.536Z,1018.3
2017-10-09T08:34:07.928Z,1018.3
2017-10-09T08:39:12.320Z,1018.3
2017-10-09T08:44:16.706Z,1018.3
2017-10-09T08:49:21.093Z,1018.3
2017-10-09T08:54:26.488Z,1018.2
2017-10-09T08:59:32.218Z,1018.3
2017-10-09T09:04:37.612Z,1018.2
2017-10-09T09:09:43.004Z,1018.1
2017-10-09T09:14:47.391Z,1018.2
2017-10-09T09:19:52.784Z,1018.2
2017-10-09T09:24:58.175Z,1018.2
2017-10-09T09:30:03.235Z,1018.1
2017-10-09T09:35:08.294Z,1018.2
2017-10-09T09:40:14.022Z,1018.2
2017-10-09T09:45:19.417Z,1018.1
2017-10-09T09:50:24.477Z,1018.1
2017-10-09T09:55:29.196Z,1018.1
2017-10-09T10:00:33.931Z,1018
2017-10-09T10:05:37.983Z,1018
2017-10-09T10:10:42.710Z,1018
2017-10-09T10:15:47.775Z,1018
2017-10-09T10:20:52.655Z,1018
2017-10-09T10:25:57.379Z,1017.9
2017-10-09T10:31:03.113Z,1017.9
2017-10-09T10:36:08.844Z,1017.9
2017-10-09T10:41:13.901Z,1017.9
2017-10-09T10:46:19.540Z,1017.8
2017-10-09T10:51:24.598Z,1017.8
2017-10-09T10:56:29.656Z,1017.7
2017-10-09T11:01:34.715Z,1017.6
2017-10-09T11:06:40.445Z,1017.7
2017-10-09T11:11:46.178Z,1017.6
2017-10-09T11:16:51.573Z,1017.6
2017-10-09T11:21:56.972Z,1017.5
2017-10-09T11:27:02.365Z,1017.5
2017-10-09T11:32:06.759Z,1017.5
2017-10-09T11:37:11.821Z,1017.5
2017-10-09T11:42:17.553Z,1017.4
2017-10-09T11:47:22.278Z,1017.4
2017-10-09T11:52:27.684Z,1017.5
2017-10-09T11:57:32.411Z,1017.4
2017-10-09T12:02:37.471Z,1017.3
2017-10-09T12:07:42.195Z,1017.4
2017-10-09T12:12:47.596Z,1017.4
2017-10-09T12:17:52.319Z,1017.4
2017-10-09T12:22:57.719Z,1017.3
2017-10-09T12:28:02.780Z,1017.2
2017-10-09T12:33:07.505Z,1017.2
2017-10-09T12:38:12.569Z,1017.2
2017-10-09T12:43:17.631Z,1017.1
2017-10-09T12:48:22.359Z,1017.2
2017-10-09T12:53:27.089Z,1017.2
2017-10-09T12:58:31.823Z,1017.2
2017-10-09T13:03:36.885Z,1017.1
2017-10-09T13:08:42.294Z,1017.2
2017-10-09T13:13:47.372Z,1017.2
2017-10-09T13:18:52.769Z,1017.1
2017-10-09T13:23:58.504Z,1017.1
2017-10-09T13:29:03.240Z,1017.1
2017-10-09T13:34:08.970Z,1017.1
2017-10-09T13:39:14.370Z,1017
2017-10-09T13:44:19.100Z,1017
2017-10-09T13:49:24.503Z,1016.9
2017-10-09T13:54:29.227Z,1017
2017-10-09T13:59:33.620Z,1017
2017-10-09T14:04:38.683Z,1017
2017-10-09T14:09:43.740Z,1016.9
2017-10-09T14:14:48.813Z,1016.9
2017-10-09T14:19:54.883Z,1016.9
2017-10-09T14:25:00.620Z,1016.9
2017-10-09T14:30:05.450Z,1016.8
2017-10-09T14:40:15.663Z,1016.7
2017-10-09T14:45:21.325Z,1016.7
2017-10-09T14:50:26.763Z,1016.7
2017-10-09T14:55:31.920Z,1016.7
2017-10-09T15:00:37.949Z,1016.7
2017-10-09T15:05:43.448Z,1016.7
2017-10-09T15:10:48.238Z,1016.7
2017-10-09T15:15:53.479Z,1016.6
2017-10-09T15:20:59.371Z,1016.6
2017-10-09T15:26:04.534Z,1016.5
2017-10-09T15:31:10.362Z,1016.4
2017-10-09T15:36:15.818Z,1016.4
2017-10-09T15:41:21.249Z,1016.4
2017-10-09T15:46:26.349Z,1016.4
2017-10-09T15:51:31.779Z,1016.4
2017-10-09T15:56:36.861Z,1016.4
2017-10-09T16:01:42.981Z,1016.4
2017-10-09T16:06:48.420Z,1016.4
2017-10-09T16:11:53.167Z,1016.3
2017-10-09T16:16:58.254Z,1016.4
2017-10-09T16:22:04.026Z,1016.4
2017-10-09T16:27:09.115Z,1016.4
2017-10-09T16:32:14.209Z,1016.4
2017-10-09T16:37:19.990Z,1016.3
2017-10-09T16:42:24.740Z,1016.3
2017-10-09T16:47:30.172Z,1016.3
2017-10-09T16:52:35.252Z,1016.2
2017-10-09T16:57:39.990Z,1016.2
2017-10-09T17:02:45.773Z,1016.2
2017-10-09T17:07:50.856Z,1016.1
2017-10-09T17:12:55.269Z,1016
2017-10-09T17:18:00.016Z,1016
2017-10-09T17:23:04.757Z,1015.9
2017-10-09T17:28:09.843Z,1015.9
2017-10-09T17:33:15.270Z,1015.9
2017-10-09T17:38:20.356Z,1015.8
2017-10-09T17:43:25.783Z,1015.8
2017-10-09T17:48:30.527Z,1015.8
2017-10-09T17:53:36.313Z,1015.8
2017-10-09T17:58:40.909Z,1015.8
2017-10-09T18:03:46.337Z,1015.8
2017-10-09T18:08:52.461Z,1015.7
2017-10-09T18:13:57.200Z,1015.7
2017-10-09T18:19:02.630Z,1015.7
2017-10-09T18:24:07.716Z,1015.7
2017-10-09T18:29:13.837Z,1015.7
2017-10-09T18:34:19.621Z,1015.6
2017-10-09T18:39:24.360Z,1015.6
2017-10-09T18:44:29.113Z,1015.6
2017-10-09T18:49:34.896Z,1015.6
2017-10-09T18:54:39.642Z,1015.6
2017-10-09T18:59:44.039Z,1015.6
2017-10-09T19:04:49.489Z,1015.6
2017-10-09T19:09:54.238Z,1015.6
2017-10-09T19:15:00.360Z,1015.6
2017-10-09T19:20:06.138Z,1015.6
2017-10-09T19:25:11.623Z,1015.6
2017-10-09T19:30:17.060Z,1015.5
2017-10-09T19:35:22.502Z,1015.5
2017-10-09T19:40:27.251Z,1015.6
2017-10-09T19:45:32.346Z,1015.6
2017-10-09T19:50:37.458Z,1015.6
2017-10-09T19:55:42.912Z,1015.6
2017-10-09T20:00:47.326Z,1015.6
2017-10-09T20:05:52.087Z,1015.6
2017-10-09T20:10:57.312Z,1015.5
2017-10-09T20:16:02.414Z,1015.5
2017-10-09T20:21:07.175Z,1015.5
2017-10-09T20:26:12.969Z,1015.4
2017-10-09T20:31:18.047Z,1015.4
2017-10-09T20:36:23.489Z,1015.4
2017-10-09T20:41:28.940Z,1015.3
2017-10-09T20:46:34.030Z,1015.4
2017-10-09T20:51:39.816Z,1015.4
2017-10-09T20:56:44.901Z,1015.3
2017-10-09T21:01:49.993Z,1015.3
2017-10-09T21:06:55.424Z,1015.4
2017-10-09T21:12:01.556Z,1015.4
2017-10-09T21:17:07.197Z,1015.4
2017-10-09T21:22:12.974Z,1015.3
2017-10-09T21:27:18.409Z,1015.3
2017-10-09T21:32:23.161Z,1015.3
2017-10-09T21:37:27.236Z,1015.2
2017-10-09T21:42:32.702Z,1015.2
2017-10-09T21:47:37.117Z,1015.2
2017-10-09T21:52:41.936Z,1015.2
2017-10-09T21:57:48.054Z,1015.1
2017-10-09T22:02:53.247Z,1015.1
2017-10-09T22:07:58.678Z,1015
2017-10-09T22:13:04.109Z,1015
2017-10-09T22:18:09.909Z,1015
2017-10-09T22:23:15.683Z,1015
2017-10-09T22:28:21.117Z,1015
2017-10-09T22:33:25.859Z,1014.9
2017-10-09T22:38:31.297Z,1014.9
2017-10-09T22:43:36.469Z,1014.9
2017-10-09T22:48:41.208Z,1014.8
2017-10-09T22:53:46.985Z,1014.8
2017-10-09T22:58:52.433Z,1014.8
2017-10-09T23:03:57.515Z,1014.7
2017-10-09T23:09:02.942Z,1014.7
2017-10-09T23:14:07.689Z,1014.6
2017-10-09T23:19:13.134Z,1014.6
2017-10-09T23:24:18.215Z,1014.5
2017-10-09T23:29:22.956Z,1014.5
2017-10-09T23:34:28.391Z,1014.4
2017-10-09T23:39:33.481Z,1014.4
2017-10-09T23:44:38.569Z,1014.5
2017-10-09T23:49:44.352Z,1014.4
2017-10-09T23:54:49.444Z,1014.4
2017-10-09T23:59:54.569Z,1014.4
